Time;durP1;ratioP1;P1;durP2;ratioP2;P2;SDS_P1;SDS_P2;PMS_P1;PMS_P2;Temp;Humidity;BMP_temperature;BMP_pressure;BME280_temperature;BME280_humidity;BME280_pressure;Samples;Min_cycle;Max_cycle;Signal;HPM_P1;HPM_P2
2023/05/02 00:00:13;;;;;;;25.92;13.88;;;;;;;13.82;67.16;101880.16;5112885;27;20042;-91
2023/05/02 00:02:39;;;;;;;27.92;15.25;;;;;;;13.78;67.44;101882.03;5110874;28;20032;-91
2023/05/02 00:05:05;;;;;;;26.67;14.52;;;;;;;13.73;67.29;101891.13;5112941;27;20080;-91
2023/05/02 00:07:31;;;;;;;28.50;15.65;;;;;;;13.67;67.73;101886.91;5099400;28;20019;-91
2023/05/02 00:09:56;;;;;;;26.25;14.05;;;;;;;13.77;67.68;101901.59;5104097;28;20034;-90
2023/05/02 00:12:22;;;;;;;29.45;14.40;;;;;;;13.73;67.53;101899.09;5109258;28;20023;-91
2023/05/02 00:14:47;;;;;;;24.55;13.65;;;;;;;13.66;67.71;101894.91;5117285;27;20027;-91
2023/05/02 00:17:17;;;;;;;25.75;13.98;;;;;;;13.67;67.86;101908.16;5109415;27;20051;-91
2023/05/02 00:19:42;;;;;;;30.13;14.82;;;;;;;13.62;68.28;101910.13;5109356;28;20510;-91
2023/05/02 00:22:08;;;;;;;30.75;14.32;;;;;;;13.58;68.68;101918.25;5110780;28;20035;-91
2023/05/02 00:24:33;;;;;;;25.50;13.27;;;;;;;13.59;68.63;101919.97;5110886;28;20035;-92
2023/05/02 00:26:58;;;;;;;26.20;13.20;;;;;;;13.44;68.48;101908.97;5106949;28;20015;-92
2023/05/02 00:29:24;;;;;;;23.85;12.80;;;;;;;13.37;69.02;101917.19;5108890;28;20020;-91
2023/05/02 00:31:49;;;;;;;27.33;13.68;;;;;;;13.28;68.91;101908.63;5108880;27;20031;-91
2023/05/02 00:34:15;;;;;;;25.08;13.23;;;;;;;13.28;69.06;101921.03;5108777;28;20466;-91
2023/05/02 00:36:40;;;;;;;24.23;13.10;;;;;;;13.23;69.33;101928.28;5108246;28;20024;-91
2023/05/02 00:39:05;;;;;;;23.40;11.95;;;;;;;13.14;69.12;101924.13;5108767;28;20511;-91
2023/05/02 00:41:31;;;;;;;24.88;12.70;;;;;;;13.04;69.57;101928.00;5108386;28;20068;-91
2023/05/02 00:43:57;;;;;;;23.90;11.98;;;;;;;13.03;69.65;101936.91;5107785;28;20485;-91
2023/05/02 00:46:22;;;;;;;23.98;12.70;;;;;;;12.96;69.63;101924.72;5109779;28;20031;-91
2023/05/02 00:48:47;;;;;;;21.73;11.43;;;;;;;12.89;69.88;101928.50;5110877;28;20393;-90
2023/05/02 00:51:12;;;;;;;20.92;10.95;;;;;;;12.83;69.59;101940.19;5107848;28;20592;-91
2023/05/02 00:53:39;;;;;;;20.58;11.20;;;;;;;12.71;69.63;101935.28;5109281;27;20333;-91
2023/05/02 00:56:06;;;;;;;19.73;10.77;;;;;;;12.61;70.08;101925.88;5103795;28;20020;-91
2023/05/02 00:58:33;;;;;;;21.88;11.52;;;;;;;12.60;70.01;101926.78;5107761;27;20407;-91
2023/05/02 01:01:36;;;;;;;23.02;11.07;;;;;;;12.78;69.98;101939.47;5106021;28;20395;-91
2023/05/02 01:04:14;;;;;;;21.10;11.45;;;;;;;12.85;69.93;101937.50;5106945;28;20034;-92
2023/05/02 01:06:56;;;;;;;21.17;10.85;;;;;;;12.86;69.07;101931.25;5098442;28;20028;-90
2023/05/02 01:09:40;;;;;;;17.75;10.27;;;;;;;12.83;68.95;101934.03;5112612;27;20039;-91
2023/05/02 01:12:27;;;;;;;17.90;9.88;;;;;;;12.80;68.91;101934.97;5109544;28;20110;-91
2023/05/02 01:14:56;;;;;;;16.83;9.50;;;;;;;12.65;69.14;101931.03;5105118;27;20035;-91
2023/05/02 01:17:26;;;;;;;16.83;8.82;;;;;;;12.62;68.75;101933.78;5109417;27;20355;-91
2023/05/02 01:19:56;;;;;;;17.00;8.70;;;;;;;12.51;68.91;101928.81;5109465;28;20027;-91
2023/05/02 01:22:25;;;;;;;17.08;8.73;;;;;;;12.61;68.65;101929.38;5113708;27;20106;-91
2023/05/02 01:25:07;;;;;;;15.82;8.52;;;;;;;12.60;68.54;101942.72;5106026;28;20035;-91
2023/05/02 01:27:46;;;;;;;14.15;7.78;;;;;;;12.58;68.79;101937.44;5106879;28;20076;-91
2023/05/02 01:30:13;;;;;;;15.00;7.95;;;;;;;12.44;69.12;101913.13;5106736;28;20104;-91
2023/05/02 01:32:42;;;;;;;14.65;7.53;;;;;;;12.46;69.23;101929.88;5102233;28;20028;-91
2023/05/02 01:35:09;;;;;;;11.95;7.38;;;;;;;12.43;68.96;101922.00;5107031;28;20031;-91
2023/05/02 01:37:37;;;;;;;15.60;7.65;;;;;;;12.41;69.12;101918.53;5110305;27;20031;-91
2023/05/02 01:40:04;;;;;;;13.80;7.85;;;;;;;12.44;69.53;101935.19;5108019;28;20027;-91
2023/05/02 01:42:32;;;;;;;15.07;7.72;;;;;;;12.42;69.32;101936.19;5107024;28;20574;-90
2023/05/02 01:44:59;;;;;;;13.23;7.50;;;;;;;12.47;69.39;101940.41;5107880;28;20019;-91
2023/05/02 01:47:26;;;;;;;15.73;8.35;;;;;;;12.48;69.71;101946.59;5110444;28;20028;-92
2023/05/02 01:49:52;;;;;;;18.83;9.70;;;;;;;12.40;69.96;101943.28;5108772;27;20100;-92
2023/05/02 01:52:20;;;;;;;18.00;8.88;;;;;;;12.41;69.88;101951.22;5098964;28;20091;-91
2023/05/02 01:54:47;;;;;;;16.90;8.98;;;;;;;12.45;70.69;101955.53;5105540;28;20390;-91
2023/05/02 01:57:14;;;;;;;16.83;8.60;;;;;;;12.40;70.18;101940.63;5105404;28;20028;-91
2023/05/02 01:59:40;;;;;;;18.60;9.18;;;;;;;12.40;70.27;101943.28;5110020;27;20110;-90
2023/05/02 02:02:09;;;;;;;17.60;9.00;;;;;;;12.43;70.50;101964.44;5108527;28;20474;-91
2023/05/02 02:04:37;;;;;;;18.67;9.60;;;;;;;12.37;70.63;101964.63;5111274;27;20022;-92
2023/05/02 02:07:07;;;;;;;18.10;9.25;;;;;;;12.39;70.62;101960.13;5110647;27;20039;-91
2023/05/02 02:09:33;;;;;;;15.15;9.77;;;;;;;12.28;71.08;101947.19;5108549;28;20029;-91
2023/05/02 02:12:07;;;;;;;17.75;9.38;;;;;;;12.40;70.75;101975.13;5107917;28;20038;-91
2023/05/02 02:14:36;;;;;;;18.55;9.60;;;;;;;12.31;71.25;101964.78;5106296;28;20397;-91
2023/05/02 02:17:10;;;;;;;15.60;9.35;;;;;;;12.36;71.22;101981.47;5105985;28;20098;-91
2023/05/02 02:19:38;;;;;;;18.20;10.35;;;;;;;12.30;71.30;101965.69;5120353;27;20034;-91
2023/05/02 02:22:06;;;;;;;18.08;10.18;;;;;;;12.32;71.25;101963.91;5105191;28;20053;-91
2023/05/02 02:24:35;;;;;;;22.90;12.20;;;;;;;12.25;71.84;101955.22;5106756;28;20444;-91
2023/05/02 02:27:01;;;;;;;19.60;10.52;;;;;;;12.34;71.55;101972.66;5107170;28;20028;-91
2023/05/02 02:29:28;;;;;;;20.27;10.95;;;;;;;12.32;72.04;101980.66;5108010;28;20038;-91
2023/05/02 02:31:53;;;;;;;17.95;10.70;;;;;;;12.33;72.14;101990.34;5105890;28;20073;-91
2023/05/02 02:34:20;;;;;;;21.67;12.07;;;;;;;12.19;72.07;101963.38;5101643;28;20031;-91
2023/05/02 02:36:59;;;;;;;22.15;12.43;;;;;;;12.30;72.13;101979.81;5111233;28;20054;-91
2023/05/02 02:39:27;;;;;;;25.25;14.02;;;;;;;12.28;72.32;101984.31;5104620;28;20027;-90
2023/05/02 02:42:12;;;;;;;23.65;13.45;;;;;;;12.24;72.08;101977.38;5108618;28;20043;-90
2023/05/02 02:45:00;;;;;;;24.23;12.90;;;;;;;12.29;72.10;101987.84;5108984;28;20027;-90
2023/05/02 02:47:35;;;;;;;23.35;12.93;;;;;;;12.31;71.92;101994.84;5110020;28;20031;-91
2023/05/02 02:50:15;;;;;;;23.15;13.07;;;;;;;12.19;73.15;101998.72;5112279;28;20360;-90
2023/05/02 02:53:18;;;;;;;21.67;12.57;;;;;;;12.23;72.10;102002.16;5106450;28;20034;-91
2023/05/02 02:55:43;;;;;;;;;;;;;;;12.41;70.38;102008.72;5088157;28;20036;-91
2023/05/02 02:58:18;;;;;;;18.35;11.68;;;;;;;12.37;71.57;102001.75;5108922;28;20389;-91
2023/05/02 03:00:44;;;;;;;21.83;12.55;;;;;;;12.22;72.22;101984.50;5110175;28;20393;-92
2023/05/02 03:03:10;;;;;;;19.05;12.48;;;;;;;12.22;72.38;101984.50;5105056;28;20024;-91
2023/05/02 03:05:36;;;;;;;22.63;12.05;;;;;;;12.17;72.17;101984.63;5107632;28;20031;-91
2023/05/02 03:08:01;;;;;;;22.60;12.38;;;;;;;12.25;72.75;102006.47;5106442;27;20047;-90
2023/05/02 03:10:26;;;;;;;20.00;13.15;;;;;;;12.27;72.91;102008.25;5112738;27;20583;-91
2023/05/02 03:12:54;;;;;;;18.88;11.73;;;;;;;12.29;73.28;102017.88;5108242;27;20373;-91
2023/05/02 03:15:46;;;;;;;18.25;12.55;;;;;;;12.31;72.59;102024.03;5103991;28;20012;-91
2023/05/02 03:18:11;;;;;;;18.23;10.50;;;;;;;12.25;72.87;102019.72;5099665;28;20074;-91
2023/05/02 03:20:37;;;;;;;22.42;11.90;;;;;;;12.27;73.31;102027.66;5109230;27;20035;-91
2023/05/02 03:23:02;;;;;;;20.55;12.48;;;;;;;12.23;73.23;102028.66;5110296;27;20075;-90
2023/05/02 03:25:27;;;;;;;17.58;12.35;;;;;;;12.27;73.60;102024.16;5112384;27;20027;-91
2023/05/02 03:27:55;;;;;;;18.70;11.45;;;;;;;12.21;73.71;102028.69;5111655;28;20153;-91
2023/05/02 03:30:20;;;;;;;19.17;11.18;;;;;;;12.20;73.64;102032.25;5107863;27;20023;-91
2023/05/02 03:32:46;;;;;;;19.30;10.60;;;;;;;12.30;73.58;102046.13;5103763;28;20031;-91
2023/05/02 03:35:11;;;;;;;23.15;12.60;;;;;;;12.27;73.68;102040.06;5114163;27;20023;-91
2023/05/02 03:37:36;;;;;;;19.67;11.82;;;;;;;12.23;73.95;102024.22;5108685;28;20039;-91
2023/05/02 03:40:02;;;;;;;23.60;11.05;;;;;;;12.22;74.88;102033.09;5109224;28;20037;-91
2023/05/02 03:42:27;;;;;;;19.83;11.02;;;;;;;12.22;75.13;102040.19;5096051;28;20027;-91
2023/05/02 03:44:53;;;;;;;17.98;10.00;;;;;;;12.10;75.30;102029.91;5101320;28;20160;-90
2023/05/02 03:47:18;;;;;;;14.68;8.77;;;;;;;12.11;75.24;102035.16;5100043;27;20023;-91
2023/05/02 03:49:43;;;;;;;15.15;8.73;;;;;;;12.09;75.41;102038.78;5098447;27;20050;-91
2023/05/02 03:52:09;;;;;;;19.38;10.57;;;;;;;11.99;75.95;102036.38;5107000;28;20513;-90
2023/05/02 03:54:34;;;;;;;16.50;8.43;;;;;;;11.97;75.90;102032.88;5107230;28;20034;-91
2023/05/02 03:57:00;;;;;;;11.23;7.63;;;;;;;11.97;75.95;102053.22;5108991;27;20036;-90
2023/05/02 03:59:26;;;;;;;13.75;7.15;;;;;;;11.87;75.67;102051.72;5119810;27;20106;-91
2023/05/02 04:01:51;;;;;;;11.20;6.25;;;;;;;11.88;75.92;102059.63;5101353;28;20027;-90
2023/05/02 04:04:16;;;;;;;12.85;6.07;;;;;;;11.90;75.35;102067.56;5112496;27;20030;-90
2023/05/02 04:06:42;;;;;;;11.52;5.32;;;;;;;11.85;74.76;102069.47;5107399;28;20039;-91
2023/05/02 04:09:07;;;;;;;11.68;4.60;;;;;;;11.76;73.90;102070.53;5104985;28;20387;-90
2023/05/02 04:11:33;;;;;;;10.45;3.90;;;;;;;11.68;73.06;102081.31;5106161;28;20093;-90
2023/05/02 04:13:58;;;;;;;7.65;3.63;;;;;;;11.59;71.69;102081.53;5107321;27;20019;-90
2023/05/02 04:16:24;;;;;;;10.13;3.25;;;;;;;11.56;70.98;102083.38;5106128;27;20028;-90
2023/05/02 04:18:49;;;;;;;6.45;3.03;;;;;;;11.57;71.02;102091.31;5109009;28;20035;-89
2023/05/02 04:21:14;;;;;;;7.78;3.08;;;;;;;11.53;70.16;102086.13;5112143;27;20031;-90
2023/05/02 04:23:40;;;;;;;5.35;1.90;;;;;;;11.49;69.38;102088.81;5107875;28;20420;-90
2023/05/02 04:26:05;;;;;;;5.10;2.00;;;;;;;11.38;69.38;102088.22;5108010;28;20027;-91
2023/05/02 04:28:31;;;;;;;7.82;2.30;;;;;;;11.43;68.44;102110.16;5115569;27;20356;-90
2023/05/02 04:30:56;;;;;;;3.70;1.67;;;;;;;11.35;68.54;102111.25;5109953;28;20023;-91
2023/05/02 04:33:22;;;;;;;5.25;1.92;;;;;;;11.40;68.61;102122.59;5113198;27;20490;-90
2023/05/02 04:35:48;;;;;;;7.82;2.10;;;;;;;11.35;68.40;102119.19;5109277;27;20475;-90
2023/05/02 04:38:14;;;;;;;7.35;2.13;;;;;;;11.44;68.02;102126.94;5109033;28;20082;-91
2023/05/02 04:40:39;;;;;;;4.07;2.30;;;;;;;11.33;67.46;102124.53;5108881;27;20059;-90
2023/05/02 04:43:05;;;;;;;4.05;1.90;;;;;;;11.34;67.59;102138.63;5109106;28;20028;-92
2023/05/02 04:45:31;;;;;;;4.47;1.83;;;;;;;11.26;67.69;102122.91;5108839;28;20517;-90
2023/05/02 04:47:56;;;;;;;5.75;2.10;;;;;;;11.33;67.15;102139.53;5103127;28;20030;-90
2023/05/02 04:50:21;;;;;;;3.75;1.92;;;;;;;11.36;67.12;102139.47;5110257;28;20024;-90
2023/05/02 04:52:47;;;;;;;5.72;1.77;;;;;;;11.39;66.57;102140.28;5108362;27;20535;-90
2023/05/02 04:55:12;;;;;;;2.83;1.65;;;;;;;11.43;65.71;102151.66;5106820;28;20074;-90
2023/05/02 04:57:38;;;;;;;4.07;1.75;;;;;;;11.46;66.05;102154.22;5109052;27;20500;-89
2023/05/02 05:00:05;;;;;;;4.00;2.05;;;;;;;11.53;65.38;102165.56;5108397;27;20510;-91
2023/05/02 05:02:30;;;;;;;6.13;1.80;;;;;;;11.44;64.81;102153.41;5126129;27;20076;-90
2023/05/02 05:04:55;;;;;;;3.85;1.98;;;;;;;11.53;65.08;102174.38;5110257;28;20024;-91
2023/05/02 05:07:21;;;;;;;3.60;1.65;;;;;;;11.52;65.36;102175.28;5106266;28;20035;-90
2023/05/02 05:09:46;;;;;;;6.57;2.28;;;;;;;11.54;65.10;102168.19;5112141;27;20116;-91
2023/05/02 05:12:11;;;;;;;6.07;1.98;;;;;;;11.60;64.67;102178.63;5108330;27;20027;-90
2023/05/02 05:14:37;;;;;;;5.82;1.58;;;;;;;11.59;64.68;102173.38;5114964;27;20027;-90
2023/05/02 05:17:02;;;;;;;3.90;1.65;;;;;;;11.61;64.48;102182.13;5111878;27;20031;-90
2023/05/02 05:19:27;;;;;;;4.38;1.50;;;;;;;11.55;64.43;102179.63;5108359;28;20038;-91
2023/05/02 05:21:53;;;;;;;7.25;1.88;;;;;;;11.55;63.79;102188.44;5107525;27;20071;-91
2023/05/02 05:24:18;;;;;;;8.27;1.88;;;;;;;11.53;64.25;102186.75;5110038;28;20083;-91
2023/05/02 05:26:43;;;;;;;4.70;1.70;;;;;;;11.58;64.30;102193.69;5101381;28;20030;-90
2023/05/02 05:29:09;;;;;;;4.20;1.70;;;;;;;11.58;64.28;102192.81;5101330;28;20493;-90
2023/05/02 05:31:34;;;;;;;7.03;2.40;;;;;;;11.65;63.29;102199.69;5106185;27;20031;-90
2023/05/02 05:34:01;;;;;;;3.67;1.40;;;;;;;11.61;63.20;102201.56;5101358;27;20031;-90
2023/05/02 05:36:26;;;;;;;5.72;1.85;;;;;;;11.60;62.33;102210.41;5104073;27;20161;-91
2023/05/02 05:38:52;;;;;;;4.03;1.75;;;;;;;11.51;61.97;102200.00;5102950;28;20118;-90
2023/05/02 05:41:17;;;;;;;3.88;1.50;;;;;;;11.52;62.00;102208.81;5103677;28;20069;-91
2023/05/02 05:43:42;;;;;;;4.93;1.70;;;;;;;11.57;61.86;102214.91;5110722;27;20111;-90
2023/05/02 05:46:08;;;;;;;1.60;1.30;;;;;;;11.53;61.36;102218.53;5125413;27;20027;-91
2023/05/02 05:48:33;;;;;;;3.38;1.50;;;;;;;11.56;61.07;102227.25;5102522;28;20016;-90
2023/05/02 05:51:03;;;;;;;4.13;1.95;;;;;;;11.54;61.41;102218.50;5107261;28;20027;-90
2023/05/02 05:53:28;;;;;;;3.75;1.30;;;;;;;11.58;61.26;102230.78;5119402;27;20023;-91
2023/05/02 05:55:54;;;;;;;6.00;2.72;;;;;;;11.45;61.16;102224.00;5104477;28;20359;-91
2023/05/02 05:58:19;;;;;;;3.90;1.38;;;;;;;11.49;61.84;102244.22;5105270;28;20024;-91
2023/05/02 06:00:44;;;;;;;3.38;1.20;;;;;;;11.51;61.17;102245.03;5116606;27;20239;-91
2023/05/02 06:03:10;;;;;;;5.50;3.60;;;;;;;11.49;62.20;102236.25;5101141;28;20024;-90
2023/05/02 06:05:35;;;;;;;9.60;5.18;;;;;;;11.49;61.54;102231.84;5103514;28;20081;-90
2023/05/02 06:08:01;;;;;;;5.30;2.67;;;;;;;11.47;61.15;102238.06;5108837;27;20024;-90
2023/05/02 06:10:26;;;;;;;3.13;1.48;;;;;;;11.47;61.35;102243.34;5118869;27;20030;-91
2023/05/02 06:12:51;;;;;;;4.80;1.45;;;;;;;11.45;61.40;102242.53;5113105;27;20008;-90
2023/05/02 06:15:17;;;;;;;6.63;1.60;;;;;;;11.48;61.65;102253.06;5109830;27;20027;-90
2023/05/02 06:17:42;;;;;;;4.35;1.80;;;;;;;11.54;61.96;102252.94;5113486;27;20020;-90
2023/05/02 06:20:08;;;;;;;4.45;1.65;;;;;;;11.60;61.61;102255.44;5113866;27;20020;-91
2023/05/02 06:22:33;;;;;;;4.07;1.70;;;;;;;11.56;61.77;102258.19;5106009;27;20035;-90
2023/05/02 06:24:59;;;;;;;9.07;1.60;;;;;;;11.63;62.47;102273.06;5107586;28;20054;-91
2023/05/02 06:27:25;;;;;;;8.98;2.78;;;;;;;11.60;62.22;102266.03;5106239;28;20027;-91
2023/05/02 06:29:51;;;;;;;4.57;2.13;;;;;;;11.66;62.11;102276.50;5102438;28;20436;-91
2023/05/02 06:32:16;;;;;;;5.90;1.80;;;;;;;11.64;62.12;102277.44;5099416;28;20036;-90
2023/05/02 06:34:41;;;;;;;4.65;1.60;;;;;;;11.70;62.55;102272.91;5104490;28;20152;-90
2023/05/02 06:37:07;;;;;;;4.55;1.70;;;;;;;11.91;62.46;102292.75;5100356;28;20415;-90
2023/05/02 06:39:32;;;;;;;9.15;2.08;;;;;;;12.07;61.99;102289.75;5104889;28;20032;-90
2023/05/02 06:41:57;;;;;;;7.30;1.88;;;;;;;12.22;62.04;102284.13;5115788;28;20061;-91
2023/05/02 06:44:23;;;;;;;12.23;2.15;;;;;;;12.40;61.21;102304.00;5104607;28;20023;-91
2023/05/02 06:46:49;;;;;;;6.88;2.10;;;;;;;12.41;60.07;102298.66;5104351;28;20498;-91
2023/05/02 06:49:14;;;;;;;7.90;1.60;;;;;;;12.35;59.81;102303.22;5107956;28;20429;-90
2023/05/02 06:51:39;;;;;;;7.38;2.10;;;;;;;12.42;59.99;102310.16;5104440;28;20946;-91
2023/05/02 06:54:05;;;;;;;4.90;1.67;;;;;;;12.62;60.17;102314.97;5105374;28;20370;-92
2023/05/02 06:56:30;;;;;;;4.50;1.90;;;;;;;12.89;59.82;102314.25;5098879;28;20479;-91
2023/05/02 06:58:55;;;;;;;6.75;2.35;;;;;;;13.13;59.68;102314.50;5095707;28;20486;-92
2023/05/02 07:01:21;;;;;;;5.53;2.10;;;;;;;13.30;57.78;102316.75;5104790;28;20111;-92
2023/05/02 07:03:46;;;;;;;6.50;2.88;;;;;;;13.27;57.75;102315.91;5105260;28;20390;-92
2023/05/02 07:06:11;;;;;;;5.68;1.80;;;;;;;13.28;58.06;102308.78;5101913;28;20042;-92
2023/05/02 07:08:37;;;;;;;7.55;1.95;;;;;;;13.47;57.37;102325.94;5104237;28;20092;-92
2023/05/02 07:11:02;;;;;;;11.23;2.35;;;;;;;13.39;57.07;102333.28;5104642;28;20028;-91
2023/05/02 07:13:28;;;;;;;10.90;2.60;;;;;;;13.20;56.79;102330.25;5106882;28;20012;-91
2023/05/02 07:15:53;;;;;;;9.60;2.40;;;;;;;13.15;57.55;102329.50;5108046;28;20030;-92
2023/05/02 07:18:20;;;;;;;7.40;2.20;;;;;;;13.15;57.71;102331.25;5102717;28;20023;-92
2023/05/02 07:20:45;;;;;;;7.38;2.20;;;;;;;13.01;57.17;102337.84;5101270;28;20089;-92
2023/05/02 07:23:10;;;;;;;9.32;2.58;;;;;;;13.07;57.82;102363.34;5105937;28;20023;-91
2023/05/02 07:25:36;;;;;;;10.18;2.50;;;;;;;13.13;57.29;102354.34;5105350;28;20016;-91
2023/05/02 07:28:01;;;;;;;7.78;2.72;;;;;;;13.17;55.78;102348.03;5109152;28;20023;-91
2023/05/02 07:30:27;;;;;;;5.00;2.22;;;;;;;13.22;55.45;102357.66;5108747;28;20031;-91
2023/05/02 07:32:52;;;;;;;8.68;2.50;;;;;;;13.29;55.92;102347.75;5109191;28;20026;-90
2023/05/02 07:35:17;;;;;;;11.20;2.38;;;;;;;13.38;55.72;102355.47;5111273;28;20019;-93
2023/05/02 07:37:42;;;;;;;7.15;2.78;;;;;;;13.69;54.78;102346.63;5111943;28;20062;-92
2023/05/02 07:40:08;;;;;;;10.90;2.80;;;;;;;14.61;54.15;102359.78;5108933;28;20027;-91
2023/05/02 07:42:35;;;;;;;7.93;2.50;;;;;;;15.03;50.93;102355.66;5107656;28;20038;-92
2023/05/02 07:45:00;;;;;;;9.90;2.90;;;;;;;14.83;50.65;102365.25;5110166;28;20106;-92
2023/05/02 07:47:25;;;;;;;6.53;2.50;;;;;;;14.56;51.82;102361.72;5103853;28;20133;-91
2023/05/02 07:49:52;;;;;;;5.72;2.13;;;;;;;14.24;53.26;102382.19;5106691;28;20061;-91
2023/05/02 07:52:18;;;;;;;6.57;2.45;;;;;;;13.82;53.77;102384.34;5113657;28;20145;-92
2023/05/02 07:54:44;;;;;;;8.70;2.70;;;;;;;13.40;54.01;102388.16;5105213;28;20032;-91
2023/05/02 07:57:10;;;;;;;10.93;2.75;;;;;;;13.08;53.24;102394.28;5103751;28;20024;-92
2023/05/02 07:59:37;;;;;;;8.57;2.30;;;;;;;12.83;54.00;102390.53;5110557;28;20027;-91
2023/05/02 08:02:03;;;;;;;7.22;2.67;;;;;;;12.75;54.49;102391.56;5107078;28;20028;-90
2023/05/02 08:04:28;;;;;;;7.28;2.33;;;;;;;12.65;54.24;102387.41;5105099;28;20023;-92
2023/05/02 08:06:54;;;;;;;10.57;2.60;;;;;;;12.72;54.24;102393.41;5108508;28;20529;-90
2023/05/02 08:09:19;;;;;;;8.90;2.60;;;;;;;12.72;54.34;102394.28;5103699;28;20036;-91
2023/05/02 08:11:45;;;;;;;4.68;2.22;;;;;;;12.93;54.72;102410.63;5110316;28;20512;-91
2023/05/02 08:14:11;;;;;;;6.72;2.55;;;;;;;13.01;53.24;102408.66;5109913;28;20068;-89
2023/05/02 08:16:36;;;;;;;7.45;2.10;;;;;;;13.00;51.29;102404.22;5104371;28;20057;-91
2023/05/02 08:19:01;;;;;;;7.43;2.33;;;;;;;13.09;51.58;102411.09;5106523;28;20111;-90
2023/05/02 08:21:27;;;;;;;10.93;2.20;;;;;;;13.26;51.98;102409.78;5106259;28;20024;-91
2023/05/02 08:23:57;;;;;;;7.45;2.60;;;;;;;13.46;51.58;102419.00;5110576;28;20110;-91
2023/05/02 08:26:23;;;;;;;4.38;2.28;;;;;;;13.58;52.54;102421.34;5101785;28;20114;-92
2023/05/02 08:28:50;;;;;;;7.30;2.30;;;;;;;13.61;50.39;102423.03;5105826;28;20023;-91
2023/05/02 08:31:15;;;;;;;9.73;2.65;;;;;;;13.50;49.53;102421.53;5111105;28;20035;-91
2023/05/02 08:33:40;;;;;;;8.93;2.40;;;;;;;13.71;50.03;102429.84;5104212;28;20027;-92
2023/05/02 08:36:16;;;;;;;7.63;2.13;;;;;;;13.91;49.65;102426.63;5104628;28;20584;-90
2023/05/02 08:38:43;;;;;;;10.18;3.10;;;;;;;14.18;49.03;102438.25;5104710;28;20044;-91
2023/05/02 08:41:16;;;;;;;6.30;1.90;;;;;;;14.52;49.98;102427.47;5110369;27;20024;-91
2023/05/02 08:43:42;;;;;;;3.25;1.48;;;;;;;14.83;47.19;102429.13;5107268;28;20030;-91
2023/05/02 08:46:10;;;;;;;6.60;1.83;;;;;;;15.01;46.38;102437.44;5103728;28;20423;-92
2023/05/02 08:48:36;;;;;;;6.28;1.90;;;;;;;15.18;45.77;102447.50;5110618;28;20039;-91
2023/05/02 08:51:03;;;;;;;7.97;2.25;;;;;;;15.19;45.67;102451.91;5102764;28;20058;-90
2023/05/02 08:53:34;;;;;;;2.38;1.40;;;;;;;15.16;44.94;102428.03;5104602;28;20020;-91
2023/05/02 08:55:59;;;;;;;6.03;1.75;;;;;;;15.46;44.57;102444.75;5108879;27;20023;-91
2023/05/02 08:58:25;;;;;;;4.60;2.13;;;;;;;15.87;45.44;102442.44;5105064;28;20038;-91
2023/05/02 09:00:51;;;;;;;7.47;2.15;;;;;;;16.27;43.13;102431.16;5102888;28;20868;-91
2023/05/02 09:03:28;;;;;;;4.03;1.98;;;;;;;16.83;42.83;102457.44;5112657;27;20522;-91
2023/05/02 09:06:14;;;;;;;4.13;1.90;;;;;;;17.13;42.24;102462.44;5109000;27;20027;-93
2023/05/02 09:08:41;;;;;;;3.85;1.80;;;;;;;17.40;41.37;102448.84;5104112;28;20027;-89
2023/05/02 09:11:09;;;;;;;5.00;1.95;;;;;;;17.22;39.97;102458.53;5108765;27;20023;-90
2023/05/02 09:13:41;;;;;;;3.33;1.75;;;;;;;17.13;43.24;102473.13;5106390;28;20016;-89
2023/05/02 09:16:18;;;;;;;5.28;2.17;;;;;;;17.50;42.78;102448.38;5107572;28;20031;-90
2023/05/02 09:18:45;;;;;;;5.72;1.95;;;;;;;19.58;40.40;102464.38;5108185;28;20052;-89
2023/05/02 09:21:17;;;;;;;5.13;1.80;;;;;;;19.33;36.20;102462.97;5119166;27;20023;-89
2023/05/02 09:23:45;;;;;;;4.70;1.63;;;;;;;18.01;37.86;102455.06;5108129;28;20016;-90
2023/05/02 09:26:11;;;;;;;5.70;1.80;;;;;;;17.33;39.99;102477.63;5107817;28;20023;-89
2023/05/02 09:28:47;;;;;;;6.55;1.75;;;;;;;16.56;40.12;102467.38;5106354;28;20027;-90
2023/05/02 09:31:21;;;;;;;5.90;2.22;;;;;;;16.05;42.04;102494.25;5110578;28;20456;-90
2023/05/02 09:33:47;;;;;;;5.25;2.00;;;;;;;15.87;43.27;102485.13;5099326;28;20462;-89
2023/05/02 09:36:15;;;;;;;5.57;2.00;;;;;;;15.89;41.25;102498.38;5108198;28;20032;-89
2023/05/02 09:38:46;;;;;;;4.78;2.17;;;;;;;16.20;42.32;102500.81;5114753;27;20142;-89
2023/05/02 09:41:12;;;;;;;5.20;2.58;;;;;;;16.48;43.15;102479.28;5112202;28;20024;-89
2023/05/02 09:43:37;;;;;;;6.47;2.20;;;;;;;16.99;41.76;102495.06;5107485;28;20081;-88
2023/05/02 09:46:09;;;;;;;4.82;2.10;;;;;;;17.33;39.96;102505.22;5101987;28;20040;-89
2023/05/02 09:48:57;;;;;;;9.52;2.70;;;;;;;17.38;42.02;102513.06;5108182;28;20027;-90
2023/05/02 09:51:24;;;;;;;6.43;2.28;;;;;;;17.10;42.46;102505.31;5105555;28;20174;-89
2023/05/02 09:53:50;;;;;;;8.90;2.58;;;;;;;17.01;40.97;102509.22;5099542;28;20024;-90
2023/05/02 09:56:17;;;;;;;4.93;2.75;;;;;;;16.77;41.26;102496.88;5103235;28;20038;-89
2023/05/02 09:58:42;;;;;;;7.32;2.60;;;;;;;16.83;44.24;102513.53;5107032;28;20106;-89
2023/05/02 10:01:15;;;;;;;9.13;3.30;;;;;;;17.20;42.39;102509.34;5106745;28;20110;-89
2023/05/02 10:03:40;;;;;;;8.43;2.72;;;;;;;17.73;39.66;102503.56;5104707;28;20020;-88
2023/05/02 10:06:08;;;;;;;9.18;2.90;;;;;;;18.27;40.40;102506.50;5108950;28;20342;-87
2023/05/02 10:08:34;;;;;;;7.78;3.13;;;;;;;18.54;40.15;102513.28;5104168;28;20039;-89
2023/05/02 10:11:04;;;;;;;6.22;2.78;;;;;;;18.76;40.38;102502.44;5107298;28;20394;-89
2023/05/02 10:13:33;;;;;;;10.80;3.20;;;;;;;19.87;39.20;102513.88;5114370;28;20024;-90
2023/05/02 10:16:03;;;;;;;11.07;3.33;;;;;;;20.47;38.04;102489.13;5088703;28;20347;-89
2023/05/02 10:18:57;;;;;;;5.10;2.60;;;;;;;20.49;38.72;102519.53;5101211;28;20064;-92
2023/05/02 10:21:26;;;;;;;7.85;2.90;;;;;;;19.92;36.09;102506.47;5102086;28;20410;-92
2023/05/02 10:23:53;;;;;;;7.70;2.70;;;;;;;19.21;37.07;102522.59;5104110;28;20026;-91
2023/05/02 10:26:22;;;;;;;8.88;2.78;;;;;;;18.60;38.04;102509.44;5104716;28;20027;-91
2023/05/02 10:28:49;;;;;;;7.28;2.45;;;;;;;17.99;38.06;102521.13;5100017;28;20032;-91
2023/05/02 10:31:16;;;;;;;6.93;2.70;;;;;;;17.63;39.05;102520.06;5104354;28;20035;-91
2023/05/02 10:33:42;;;;;;;3.47;2.30;;;;;;;17.57;38.70;102530.06;5103240;28;20015;-91
2023/05/02 10:36:11;;;;;;;4.50;2.25;;;;;;;17.54;40.07;102524.00;5107651;28;20031;-91
2023/05/02 10:38:37;;;;;;;5.68;2.30;;;;;;;17.69;40.87;102517.97;5101404;28;20040;-90
2023/05/02 10:41:08;;;;;;;6.13;2.55;;;;;;;18.02;38.74;102525.50;5103705;28;20035;-90
2023/05/02 10:43:35;;;;;;;3.53;2.05;;;;;;;18.53;38.88;102530.28;5104883;28;20032;-90
2023/05/02 10:46:02;;;;;;;8.82;2.80;;;;;;;18.89;38.91;102505.41;5117372;27;20447;-89
2023/05/02 10:48:28;;;;;;;4.97;2.88;;;;;;;18.98;36.62;102517.47;5105501;28;20623;-90
2023/05/02 10:51:02;;;;;;;8.13;2.35;;;;;;;18.67;36.90;102529.63;5110002;28;20047;-91
2023/05/02 10:53:33;;;;;;;7.97;3.05;;;;;;;18.27;37.47;102523.44;5119601;27;20054;-91
2023/05/02 10:56:19;;;;;;;6.90;2.70;;;;;;;17.83;38.48;102522.78;5099251;28;20034;-92
2023/05/02 10:58:47;;;;;;;8.68;2.40;;;;;;;18.28;36.59;102524.34;5104814;28;20031;-90
2023/05/02 11:01:25;;;;;;;4.97;2.30;;;;;;;19.52;37.10;102521.91;5115474;27;20406;-90
2023/05/02 11:03:57;;;;;;;3.72;2.60;;;;;;;20.33;35.60;102528.41;5111920;28;20107;-88
2023/05/02 11:06:27;;;;;;;6.85;2.38;;;;;;;19.98;33.49;102529.41;5108673;28;20027;-89
2023/05/02 11:09:16;;;;;;;4.78;2.10;;;;;;;19.42;35.84;102522.44;5104471;28;20036;-90
2023/05/02 11:11:43;;;;;;;5.55;2.30;;;;;;;19.51;35.08;102538.09;5109002;28;20026;-90
2023/05/02 11:14:09;;;;;;;6.40;2.60;;;;;;;19.72;35.74;102530.75;5108122;28;20016;-91
2023/05/02 11:16:59;;;;;;;5.75;2.38;;;;;;;20.76;35.94;102531.44;5105848;28;20040;-91
2023/05/02 11:19:28;;;;;;;9.88;2.50;;;;;;;21.55;34.27;102519.72;5106627;28;20497;-91
2023/05/02 11:22:25;;;;;;;5.20;2.35;;;;;;;21.41;32.21;102542.09;5113628;28;20031;-90